createdAt,value
2022-12-11T00:00:20.104Z,9.30
2022-12-11T00:03:11.387Z,8.80
2022-12-11T00:05:42.023Z,9.40
2022-12-11T00:08:09.704Z,9.00
2022-12-11T00:10:38.050Z,10.30
2022-12-11T00:13:05.671Z,9.00
2022-12-11T00:15:33.086Z,9.30
2022-12-11T00:18:00.553Z,8.80
2022-12-11T00:20:28.007Z,8.50
2022-12-11T00:22:55.821Z,8.40
2022-12-11T00:25:23.269Z,7.60
2022-12-11T00:27:50.788Z,7.90
2022-12-11T00:30:18.236Z,8.10
2022-12-11T00:32:45.674Z,8.50
2022-12-11T00:35:13.420Z,8.50
2022-12-11T00:37:41.257Z,8.00
2022-12-11T00:40:08.991Z,9.80
2022-12-11T00:42:36.918Z,9.30
2022-12-11T00:45:04.356Z,9.70
2022-12-11T00:47:31.764Z,11.00
2022-12-11T00:49:59.191Z,12.00
2022-12-11T00:52:26.596Z,10.80
2022-12-11T00:54:53.994Z,10.40
2022-12-11T00:57:21.528Z,10.20
2022-12-11T00:59:49.173Z,10.60
2022-12-11T01:02:16.556Z,10.90
2022-12-11T01:04:44.772Z,11.30
2022-12-11T01:07:12.285Z,11.80
2022-12-11T01:09:39.691Z,11.20
2022-12-11T01:12:07.077Z,11.50
2022-12-11T01:14:34.478Z,10.20
2022-12-11T01:17:02.228Z,9.80
2022-12-11T01:19:29.681Z,9.10
2022-12-11T01:21:57.243Z,9.50
2022-12-11T01:24:24.625Z,10.00
2022-12-11T01:26:52.048Z,10.10
2022-12-11T01:29:19.540Z,9.80
2022-12-11T01:31:46.957Z,9.60
2022-12-11T01:34:14.396Z,8.30
2022-12-11T01:36:42.060Z,9.10
2022-12-11T01:39:09.772Z,8.10
2022-12-11T01:41:37.193Z,9.10
2022-12-11T01:44:04.612Z,10.00
2022-12-11T01:46:32.028Z,10.50
2022-12-11T01:48:59.477Z,9.90
2022-12-11T01:51:26.880Z,10.70
2022-12-11T01:53:54.306Z,10.50
2022-12-11T01:56:21.783Z,9.80
2022-12-11T01:58:49.144Z,10.40
2022-12-11T02:01:16.662Z,10.20
2022-12-11T02:03:44.214Z,11.40
2022-12-11T02:06:11.623Z,11.30
2022-12-11T02:08:39.031Z,10.80
2022-12-11T02:11:06.413Z,8.60
2022-12-11T02:13:33.809Z,9.30
2022-12-11T02:16:01.291Z,9.80
2022-12-11T02:18:28.770Z,9.90
2022-12-11T02:20:56.401Z,9.20
2022-12-11T02:23:24.171Z,8.50
2022-12-11T02:25:51.570Z,7.60
2022-12-11T02:28:19.193Z,8.50
2022-12-11T02:30:46.593Z,9.30
2022-12-11T02:33:13.977Z,8.70
2022-12-11T02:35:41.350Z,5.90
2022-12-11T02:38:08.989Z,7.50
2022-12-11T02:40:36.388Z,7.00
2022-12-11T02:43:03.770Z,7.50
2022-12-11T02:45:31.403Z,8.50
2022-12-11T02:47:59.996Z,7.00
2022-12-11T02:50:27.828Z,7.40
2022-12-11T02:52:55.214Z,5.50
2022-12-11T02:55:22.683Z,8.10
2022-12-11T02:57:51.855Z,9.00
2022-12-11T03:00:19.411Z,8.70
2022-12-11T03:02:46.931Z,8.50
2022-12-11T03:05:14.985Z,9.60
2022-12-11T03:07:42.902Z,8.30
2022-12-11T03:10:10.398Z,7.50
2022-12-11T03:12:38.130Z,8.10
2022-12-11T03:15:05.540Z,7.70
2022-12-11T03:17:33.035Z,8.30
2022-12-11T03:20:00.611Z,8.40
2022-12-11T03:22:28.060Z,8.10
2022-12-11T03:24:56.936Z,9.10
2022-12-11T03:27:24.907Z,8.20
2022-12-11T03:29:52.491Z,9.00
2022-12-11T03:32:20.042Z,7.60
2022-12-11T03:34:47.720Z,9.10
2022-12-11T03:37:15.547Z,7.80
2022-12-11T03:39:43.137Z,7.60
2022-12-11T03:42:10.504Z,7.60
2022-12-11T03:44:37.853Z,9.00
2022-12-11T03:47:05.388Z,8.80
2022-12-11T03:49:32.908Z,8.50
2022-12-11T03:52:00.509Z,7.50
2022-12-11T03:54:28.278Z,8.00
2022-12-11T03:56:55.722Z,9.50
2022-12-11T03:59:23.542Z,9.00
2022-12-11T04:01:51.267Z,8.50
2022-12-11T04:04:18.737Z,9.50
2022-12-11T04:06:46.238Z,7.90
2022-12-11T04:09:13.969Z,9.20
2022-12-11T04:11:41.372Z,10.80
2022-12-11T04:14:08.907Z,11.00
2022-12-11T04:16:36.306Z,10.70
2022-12-11T04:19:03.681Z,9.00
2022-12-11T04:21:33.986Z,9.10
2022-12-11T04:24:05.534Z,7.00
2022-12-11T04:26:33.098Z,7.60
2022-12-11T04:29:00.499Z,10.30
2022-12-11T04:31:27.955Z,9.50
2022-12-11T04:33:55.366Z,8.60
2022-12-11T04:36:22.737Z,9.20
2022-12-11T04:38:50.198Z,8.60
2022-12-11T04:41:17.596Z,9.30
2022-12-11T04:43:44.982Z,10.60
2022-12-11T04:46:12.597Z,10.40
2022-12-11T04:48:40.155Z,9.20
2022-12-11T04:51:07.596Z,9.40
2022-12-11T04:53:34.972Z,8.80
2022-12-11T04:56:02.361Z,10.00
2022-12-11T04:58:29.738Z,9.60
2022-12-11T05:00:57.436Z,9.40
2022-12-11T05:03:25.116Z,9.30
2022-12-11T05:05:52.638Z,8.70
2022-12-11T05:08:20.133Z,6.60
2022-12-11T05:10:50.213Z,9.90
2022-12-11T05:13:17.793Z,8.40
2022-12-11T05:15:45.314Z,8.70
2022-12-11T05:18:12.788Z,10.30
2022-12-11T05:20:40.174Z,10.00
2022-12-11T05:23:07.888Z,6.80
2022-12-11T05:25:35.352Z,7.10
2022-12-11T05:28:02.757Z,7.70
2022-12-11T05:30:30.141Z,7.80
2022-12-11T05:32:57.751Z,9.10
2022-12-11T05:35:25.136Z,8.80
2022-12-11T05:37:52.781Z,9.30
2022-12-11T05:40:20.431Z,9.60
2022-12-11T05:42:47.823Z,8.80
2022-12-11T05:45:15.305Z,9.10
2022-12-11T05:47:42.851Z,5.90
2022-12-11T05:50:10.247Z,7.40
2022-12-11T05:52:37.852Z,8.30
2022-12-11T05:55:05.435Z,9.60
2022-12-11T05:57:32.874Z,8.10
2022-12-11T06:00:00.349Z,7.70
2022-12-11T06:02:27.846Z,6.90
2022-12-11T06:04:55.377Z,7.40
2022-12-11T06:07:22.798Z,7.10
2022-12-11T06:09:50.205Z,6.40
2022-12-11T06:12:17.611Z,8.90
2022-12-11T06:14:45.148Z,9.30
2022-12-11T06:17:12.573Z,8.80
2022-12-11T06:19:40.087Z,11.20
2022-12-11T06:22:07.727Z,10.80
2022-12-11T06:24:35.249Z,8.70
2022-12-11T06:27:02.777Z,10.10
2022-12-11T06:29:30.323Z,9.40
2022-12-11T06:31:57.848Z,11.00
2022-12-11T06:34:25.338Z,10.80
2022-12-11T06:36:52.899Z,9.00
2022-12-11T06:39:20.351Z,8.30
2022-12-11T06:41:47.735Z,7.60
2022-12-11T06:44:15.193Z,6.20
2022-12-11T06:46:42.566Z,6.80
2022-12-11T06:49:10.353Z,9.70
2022-12-11T06:51:37.723Z,10.20
2022-12-11T06:54:05.215Z,8.60
2022-12-11T06:56:32.689Z,8.30
2022-12-11T06:59:05.715Z,6.50
2022-12-11T07:01:34.602Z,7.80
2022-12-11T07:04:02.003Z,9.10
2022-12-11T07:06:29.395Z,10.10
2022-12-11T07:08:56.782Z,9.10
2022-12-11T07:11:24.189Z,7.90
2022-12-11T07:13:51.552Z,8.00
2022-12-11T07:16:19.026Z,7.20
2022-12-11T07:18:46.570Z,8.00
2022-12-11T07:21:13.960Z,8.80
2022-12-11T07:23:41.374Z,9.80
2022-12-11T07:26:08.748Z,10.90
2022-12-11T07:28:36.361Z,9.80
2022-12-11T07:31:03.906Z,9.30
2022-12-11T07:33:31.620Z,9.70
2022-12-11T07:35:59.012Z,8.60
2022-12-11T07:38:26.450Z,8.70
2022-12-11T07:40:54.051Z,8.10
2022-12-11T07:43:21.673Z,8.00
2022-12-11T07:45:49.321Z,11.40
2022-12-11T07:48:17.295Z,8.40
2022-12-11T07:50:44.697Z,8.70
2022-12-11T07:53:12.111Z,10.80
2022-12-11T07:55:39.492Z,8.80
2022-12-11T07:58:07.013Z,9.80
2022-12-11T08:00:34.529Z,10.40
2022-12-11T08:03:02.046Z,8.00
2022-12-11T08:05:29.468Z,9.70
2022-12-11T08:07:57.124Z,9.00
2022-12-11T08:10:24.648Z,7.20
2022-12-11T08:12:52.026Z,10.60
2022-12-11T08:15:19.624Z,10.20
2022-12-11T08:17:47.082Z,9.70
2022-12-11T08:20:14.599Z,8.40
2022-12-11T08:22:42.115Z,9.50
2022-12-11T08:25:10.097Z,8.80
2022-12-11T08:27:37.782Z,8.70
2022-12-11T08:30:05.409Z,8.40
2022-12-11T08:32:33.293Z,8.80
2022-12-11T08:35:00.837Z,6.60
2022-12-11T08:37:28.585Z,8.70
2022-12-11T08:39:56.000Z,7.60
2022-12-11T08:42:23.678Z,8.10
2022-12-11T08:44:51.063Z,9.20
2022-12-11T08:47:18.481Z,8.30
2022-12-11T08:49:45.905Z,9.50
2022-12-11T08:52:13.278Z,6.70
2022-12-11T08:54:40.991Z,8.10
2022-12-11T08:57:08.840Z,8.80
2022-12-11T08:59:36.361Z,6.70
2022-12-11T09:02:03.974Z,10.00
2022-12-11T09:04:31.688Z,11.50
2022-12-11T09:06:59.423Z,10.30
2022-12-11T09:09:26.964Z,10.40
2022-12-11T09:11:54.420Z,7.80
2022-12-11T09:14:21.802Z,6.30
2022-12-11T09:16:49.235Z,8.50
2022-12-11T09:19:16.808Z,8.40
2022-12-11T09:21:44.485Z,8.40
2022-12-11T09:24:12.237Z,7.10
2022-12-11T09:26:39.659Z,10.20
2022-12-11T09:29:07.058Z,9.80
2022-12-11T09:31:34.685Z,9.40
2022-12-11T09:34:02.239Z,9.60
2022-12-11T09:36:29.657Z,10.70
2022-12-11T09:38:57.208Z,8.00
2022-12-11T09:41:24.753Z,10.30
2022-12-11T09:43:52.163Z,9.10
2022-12-11T09:46:22.541Z,9.80
2022-12-11T09:48:52.136Z,6.80
2022-12-11T09:51:19.556Z,9.80
2022-12-11T09:53:47.038Z,9.10
2022-12-11T09:56:14.425Z,9.70
2022-12-11T09:58:42.056Z,8.30
2022-12-11T10:01:09.476Z,7.90
2022-12-11T10:03:36.891Z,7.30
2022-12-11T10:06:05.232Z,8.10
2022-12-11T10:08:32.782Z,5.20
2022-12-11T10:11:00.182Z,8.30
2022-12-11T10:13:27.579Z,8.80
2022-12-11T10:15:55.391Z,6.30
2022-12-11T10:18:23.139Z,7.30
2022-12-11T10:20:50.564Z,9.60
2022-12-11T10:23:17.990Z,6.30
2022-12-11T10:25:45.461Z,9.30
2022-12-11T10:28:12.861Z,7.30
2022-12-11T10:30:40.396Z,5.90
2022-12-11T10:33:07.863Z,7.90
2022-12-11T10:35:35.351Z,7.00
2022-12-11T10:38:02.746Z,6.20
2022-12-11T10:40:30.486Z,7.20
2022-12-11T10:42:58.052Z,8.60
2022-12-11T10:45:25.821Z,8.10
2022-12-11T10:47:53.213Z,8.30
2022-12-11T10:50:20.803Z,8.60
2022-12-11T10:52:48.201Z,9.50
2022-12-11T10:55:15.679Z,5.80
2022-12-11T10:57:43.037Z,7.40
2022-12-11T11:00:10.452Z,9.40
2022-12-11T11:02:38.137Z,9.70
2022-12-11T11:05:05.747Z,9.70
2022-12-11T11:07:33.203Z,10.00
2022-12-11T11:10:00.604Z,9.10
2022-12-11T11:12:28.000Z,8.40
2022-12-11T11:14:55.638Z,7.00
2022-12-11T11:17:23.093Z,9.10
2022-12-11T11:19:50.552Z,6.10
2022-12-11T11:22:18.139Z,8.90
2022-12-11T11:24:45.826Z,10.30
2022-12-11T11:27:13.953Z,10.10
2022-12-11T11:29:42.562Z,9.80
2022-12-11T11:32:10.948Z,9.90
2022-12-11T11:34:39.679Z,11.10
2022-12-11T11:37:08.298Z,9.90
2022-12-11T11:39:35.767Z,10.20
2022-12-11T11:42:03.401Z,6.60
2022-12-11T11:44:31.395Z,10.40
2022-12-11T11:46:58.821Z,10.60
2022-12-11T11:49:26.273Z,11.80
2022-12-11T11:51:53.924Z,11.30
2022-12-11T11:54:21.356Z,9.70
2022-12-11T11:56:48.763Z,8.50
2022-12-11T11:59:16.174Z,6.10
2022-12-11T12:01:43.817Z,9.80
2022-12-11T12:04:11.188Z,7.30
2022-12-11T12:06:38.595Z,9.80
2022-12-11T12:09:06.053Z,9.00
2022-12-11T12:11:33.588Z,7.70
2022-12-11T12:14:00.974Z,10.80
2022-12-11T12:19:15.743Z,7.50
2022-12-11T12:21:43.119Z,7.80
2022-12-11T12:24:10.674Z,10.40
2022-12-11T12:26:38.043Z,10.60
2022-12-11T12:29:05.438Z,10.50
2022-12-11T12:31:33.907Z,11.10
2022-12-11T12:34:01.414Z,10.50
2022-12-11T12:36:28.846Z,10.10
2022-12-11T12:38:56.247Z,8.10
2022-12-11T12:41:23.666Z,7.20
2022-12-11T12:43:51.225Z,11.40
2022-12-11T12:46:18.733Z,10.00
2022-12-11T12:48:46.496Z,8.90
2022-12-11T12:51:14.059Z,10.30
2022-12-11T12:53:41.678Z,11.80
2022-12-11T12:56:09.081Z,8.90
2022-12-11T12:58:36.463Z,8.20
2022-12-11T13:01:03.948Z,9.10
2022-12-11T13:03:31.373Z,10.40
2022-12-11T13:05:58.768Z,9.90
2022-12-11T13:08:26.235Z,11.10
2022-12-11T13:10:54.073Z,11.00
2022-12-11T13:13:21.445Z,10.00
2022-12-11T13:15:48.983Z,8.80
2022-12-11T13:18:16.501Z,12.40
2022-12-11T13:20:44.033Z,10.80
2022-12-11T13:23:11.539Z,12.20
2022-12-11T13:25:41.767Z,8.00
2022-12-11T13:28:09.370Z,12.60
2022-12-11T13:30:36.821Z,14.40
2022-12-11T13:33:04.205Z,12.10
2022-12-11T13:35:31.590Z,8.50
2022-12-11T13:37:59.065Z,7.40
2022-12-11T13:40:26.557Z,11.20
2022-12-11T13:42:53.970Z,9.30
2022-12-11T13:45:21.391Z,11.40
2022-12-11T13:47:48.880Z,10.30
2022-12-11T13:50:16.286Z,9.60
2022-12-11T13:52:43.857Z,8.30
2022-12-11T13:55:11.709Z,12.20
2022-12-11T13:57:39.192Z,12.40
2022-12-11T14:00:06.983Z,12.30
2022-12-11T14:02:34.538Z,12.30
2022-12-11T14:05:02.241Z,11.10
2022-12-11T14:07:29.638Z,12.00
2022-12-11T14:09:57.094Z,10.70
2022-12-11T14:12:24.529Z,11.50
2022-12-11T14:14:51.935Z,12.60
2022-12-11T14:17:19.343Z,12.90
2022-12-11T14:19:46.735Z,9.80
2022-12-11T14:22:14.301Z,7.10
2022-12-11T14:24:41.849Z,12.60
2022-12-11T14:27:09.303Z,11.00
2022-12-11T14:29:36.699Z,12.30
2022-12-11T14:32:04.132Z,11.80
2022-12-11T14:34:31.753Z,10.30
2022-12-11T14:36:59.158Z,12.90
2022-12-11T14:39:26.620Z,14.00
2022-12-11T14:41:54.042Z,14.30
2022-12-11T14:44:21.451Z,14.00
2022-12-11T14:46:49.173Z,11.80
2022-12-11T14:49:16.680Z,10.10
2022-12-11T14:51:44.120Z,14.30
2022-12-11T14:54:14.978Z,9.00
2022-12-11T14:56:46.428Z,13.80
2022-12-11T14:59:14.033Z,11.60
2022-12-11T15:01:41.606Z,13.50
2022-12-11T15:04:09.050Z,9.70
2022-12-11T15:06:36.459Z,13.20
2022-12-11T15:09:03.899Z,9.00
2022-12-11T15:11:31.473Z,9.80
2022-12-11T15:13:59.004Z,14.30
2022-12-11T15:16:26.458Z,16.20
2022-12-11T15:18:53.902Z,12.20
2022-12-11T15:21:21.276Z,13.30
2022-12-11T15:23:48.735Z,14.00
2022-12-11T15:26:16.304Z,16.30
2022-12-11T15:28:43.704Z,11.00
2022-12-11T15:31:11.194Z,15.30
2022-12-11T15:33:38.602Z,9.80
2022-12-11T15:36:06.186Z,16.60
2022-12-11T15:38:33.579Z,10.10
2022-12-11T15:41:01.047Z,13.90
2022-12-11T15:43:28.442Z,13.10
2022-12-11T15:45:55.942Z,13.00
2022-12-11T15:48:23.597Z,12.20
2022-12-11T15:50:51.185Z,15.40
2022-12-11T15:53:18.963Z,11.10
2022-12-11T15:55:46.555Z,15.20
2022-12-11T15:58:14.182Z,13.30
2022-12-11T16:00:41.709Z,12.60
2022-12-11T16:03:09.114Z,11.60
2022-12-11T16:05:36.520Z,10.10
2022-12-11T16:08:03.943Z,8.50
2022-12-11T16:10:31.355Z,9.20
2022-12-11T16:12:59.094Z,11.20
2022-12-11T16:15:26.545Z,13.90
2022-12-11T16:17:54.369Z,11.00
2022-12-11T16:20:21.770Z,13.60
2022-12-11T16:22:49.223Z,9.40
2022-12-11T16:25:17.004Z,10.20
2022-12-11T16:27:44.411Z,14.10
2022-12-11T16:30:13.598Z,15.30
2022-12-11T16:32:46.516Z,7.60
2022-12-11T16:35:16.469Z,12.60
2022-12-11T16:37:43.822Z,13.60
2022-12-11T16:40:11.334Z,14.50
2022-12-11T16:42:38.986Z,10.40
2022-12-11T16:45:06.358Z,15.40
2022-12-11T16:47:34.267Z,13.60
2022-12-11T16:50:01.650Z,8.80
2022-12-11T16:52:29.104Z,14.60
2022-12-11T16:54:56.664Z,11.90
2022-12-11T16:57:24.183Z,15.50
2022-12-11T16:59:51.770Z,11.40
2022-12-11T17:02:19.210Z,8.10
2022-12-11T17:04:52.122Z,13.40
2022-12-11T17:07:21.436Z,18.10
2022-12-11T17:09:48.852Z,18.00
2022-12-11T17:12:16.402Z,14.30
2022-12-11T17:14:43.938Z,16.50
2022-12-11T17:17:11.454Z,15.50
2022-12-11T17:19:38.860Z,18.50
2022-12-11T17:22:06.464Z,10.20
2022-12-11T17:24:34.122Z,13.10
2022-12-11T17:27:01.919Z,19.20
2022-12-11T17:29:29.515Z,10.30
2022-12-11T17:31:57.295Z,17.10
2022-12-11T17:34:25.043Z,13.50
2022-12-11T17:36:52.608Z,14.00
2022-12-11T17:39:20.520Z,16.10
2022-12-11T17:41:48.195Z,12.80
2022-12-11T17:44:15.777Z,16.60
2022-12-11T17:46:43.369Z,13.20
2022-12-11T17:49:10.906Z,12.30
2022-12-11T17:51:38.469Z,15.10
2022-12-11T17:54:05.856Z,10.80
2022-12-11T17:56:33.253Z,17.00
2022-12-11T17:59:00.957Z,13.40
2022-12-11T18:01:28.681Z,12.00
2022-12-11T18:03:56.429Z,16.80
2022-12-11T18:06:24.068Z,20.40
2022-12-11T18:08:51.512Z,22.70
2022-12-11T18:11:19.043Z,22.10
2022-12-11T18:13:46.556Z,21.60
2022-12-11T18:16:14.006Z,16.10
2022-12-11T18:18:41.471Z,21.30
2022-12-11T18:21:08.873Z,18.10
2022-12-11T18:23:36.283Z,20.10
2022-12-11T18:26:03.814Z,18.00
2022-12-11T18:28:31.391Z,22.40
2022-12-11T18:30:58.880Z,16.60
2022-12-11T18:33:26.501Z,19.00
2022-12-11T18:35:54.007Z,9.60
2022-12-11T18:38:21.368Z,19.50
2022-12-11T18:40:48.810Z,20.00
2022-12-11T18:43:16.395Z,21.80
2022-12-11T18:45:43.797Z,21.00
2022-12-11T18:48:11.308Z,18.40
2022-12-11T18:50:38.697Z,17.60
2022-12-11T18:53:06.147Z,14.80
2022-12-11T18:55:33.551Z,19.80
2022-12-11T18:58:00.952Z,13.70
2022-12-11T19:00:28.450Z,16.60
2022-12-11T19:02:55.984Z,15.30
2022-12-11T19:05:23.609Z,17.20
2022-12-11T19:07:51.253Z,17.70
2022-12-11T19:10:18.819Z,17.20
2022-12-11T19:12:46.376Z,18.40
2022-12-11T19:15:14.679Z,19.80
2022-12-11T19:17:43.183Z,14.40
2022-12-11T19:20:40.558Z,16.50
2022-12-11T19:22:58.014Z,15.70
2022-12-11T19:25:25.528Z,15.00
2022-12-11T19:27:52.929Z,10.00
2022-12-11T19:30:20.417Z,10.30
2022-12-11T19:32:48.460Z,11.80
2022-12-11T19:35:16.397Z,14.20
2022-12-11T19:37:44.105Z,14.30
2022-12-11T19:40:11.671Z,11.30
2022-12-11T19:42:39.253Z,9.10
2022-12-11T19:45:06.777Z,11.30
2022-12-11T19:47:34.458Z,14.50
2022-12-11T19:50:01.984Z,14.40
2022-12-11T19:52:29.526Z,14.60
2022-12-11T19:54:56.990Z,10.80
2022-12-11T19:57:24.679Z,13.40
2022-12-11T19:59:56.925Z,13.90
2022-12-11T20:02:25.093Z,13.40
2022-12-11T20:04:53.033Z,12.90
2022-12-11T20:07:21.657Z,11.10
2022-12-11T20:09:50.444Z,11.50
2022-12-11T20:12:18.150Z,15.10
2022-12-11T20:14:45.533Z,18.10
2022-12-11T20:17:14.500Z,13.40
2022-12-11T20:19:42.570Z,16.80
2022-12-11T20:22:09.960Z,16.50
2022-12-11T20:24:37.478Z,18.00
2022-12-11T20:27:04.902Z,16.10
2022-12-11T20:29:32.440Z,18.80
2022-12-11T20:32:00.182Z,20.30
2022-12-11T20:34:28.173Z,18.70
2022-12-11T20:36:55.715Z,18.60
2022-12-11T20:39:23.123Z,18.30
2022-12-11T20:41:50.610Z,15.50
2022-12-11T20:44:17.999Z,11.40
2022-12-11T20:46:45.479Z,19.10
2022-12-11T20:49:13.104Z,19.50
2022-12-11T20:51:40.695Z,16.90
2022-12-11T20:54:08.079Z,16.00
2022-12-11T20:56:35.799Z,13.40
2022-12-11T20:59:05.247Z,15.00
2022-12-11T21:01:32.972Z,12.50
2022-12-11T21:04:00.424Z,19.00
2022-12-11T21:06:27.898Z,13.30
2022-12-11T21:08:55.360Z,20.50
2022-12-11T21:11:22.739Z,14.10
2022-12-11T21:13:50.129Z,15.00
2022-12-11T21:16:17.794Z,13.40
2022-12-11T21:18:45.215Z,13.30
2022-12-11T21:21:12.625Z,15.80
2022-12-11T21:23:40.011Z,12.90
2022-12-11T21:26:07.395Z,11.80
2022-12-11T21:28:35.702Z,12.10
2022-12-11T21:31:03.377Z,12.20
2022-12-11T21:33:30.791Z,13.50
2022-12-11T21:35:58.439Z,12.20
2022-12-11T21:38:26.017Z,13.50
2022-12-11T21:40:53.413Z,12.20
2022-12-11T21:43:20.830Z,14.40
2022-12-11T21:46:04.531Z,13.70
2022-12-11T21:48:32.289Z,13.90
2022-12-11T21:50:59.675Z,13.80
2022-12-11T21:53:27.050Z,14.30
2022-12-11T21:55:54.451Z,13.80
2022-12-11T21:58:21.855Z,13.50
2022-12-11T22:00:49.717Z,8.90
2022-12-11T22:03:17.264Z,13.30
2022-12-11T22:05:44.926Z,15.60
2022-12-11T22:08:12.578Z,16.10
2022-12-11T22:10:40.023Z,13.80
2022-12-11T22:13:07.762Z,12.50
2022-12-11T22:15:35.231Z,12.30
2022-12-11T22:18:02.817Z,12.80
2022-12-11T22:20:30.590Z,11.70
2022-12-11T22:22:58.051Z,11.80
2022-12-11T22:25:25.698Z,13.70
2022-12-11T22:27:53.328Z,13.70
2022-12-11T22:30:20.969Z,9.00
2022-12-11T22:32:48.854Z,14.40
2022-12-11T22:35:16.606Z,10.30
2022-12-11T22:37:44.124Z,18.30
2022-12-11T22:40:11.517Z,18.70
2022-12-11T22:42:38.925Z,13.50
2022-12-11T22:45:06.301Z,14.80
2022-12-11T22:47:33.701Z,10.10
2022-12-11T22:50:01.082Z,6.00
2022-12-11T22:52:28.661Z,16.30
2022-12-11T22:54:56.185Z,15.50
2022-12-11T22:57:24.012Z,15.00
2022-12-11T22:59:51.503Z,10.80
2022-12-11T23:02:19.023Z,9.80
2022-12-11T23:04:46.713Z,10.60
2022-12-11T23:07:14.179Z,12.60
2022-12-11T23:09:41.867Z,14.60
2022-12-11T23:12:09.246Z,16.50
2022-12-11T23:14:36.641Z,13.70
2022-12-11T23:17:04.124Z,11.70
2022-12-11T23:19:31.560Z,12.50
2022-12-11T23:21:59.050Z,11.80
2022-12-11T23:24:26.437Z,9.10
2022-12-11T23:26:53.860Z,11.30
2022-12-11T23:29:21.453Z,15.90
2022-12-11T23:31:49.404Z,19.30
2022-12-11T23:34:17.050Z,17.40
2022-12-11T23:36:44.504Z,15.20
2022-12-11T23:39:11.905Z,10.60
2022-12-11T23:41:39.475Z,11.20
2022-12-11T23:44:07.008Z,13.30
2022-12-11T23:46:34.570Z,11.30
2022-12-11T23:49:02.028Z,11.70
2022-12-11T23:51:29.413Z,16.00
2022-12-11T23:53:56.953Z,16.80
2022-12-11T23:56:24.447Z,16.30
2022-12-11T23:58:51.846Z,10.90
